Time;durP1;ratioP1;P1;durP2;ratioP2;P2;SDS_P1;SDS_P2;PMS_P1;PMS_P2;Temp;Humidity;BMP_temperature;BMP_pressure;BME280_temperature;BME280_humidity;BME280_pressure;Samples;Min_cycle;Max_cycle;Signal;HPM_P1;HPM_P2
2024/02/12 00:01:46;;;;;;;19.70;10.82;;;6.90;99.90;;;;;;5007035;28;20034;-72
2024/02/12 00:04:12;;;;;;;16.83;10.40;;;6.80;99.90;;;;;;5007061;28;20037;-73
2024/02/12 00:06:38;;;;;;;18.77;10.88;;;6.90;99.90;;;;;;5003979;28;20140;-70
2024/02/12 00:09:04;;;;;;;21.10;11.15;;;6.90;99.90;;;;;;5007148;28;20081;-72
2024/02/12 00:11:30;;;;;;;18.65;10.82;;;6.80;99.90;;;;;;5010589;28;20049;-68
2024/02/12 00:13:56;;;;;;;19.98;10.88;;;6.80;99.90;;;;;;5010793;28;20444;-70
2024/02/12 00:16:26;;;;;;;18.52;10.30;;;6.80;99.90;;;;;;5002613;28;20047;-72
2024/02/12 00:18:51;;;;;;;19.48;11.02;;;6.80;99.90;;;;;;4991254;28;20042;-71
2024/02/12 00:21:18;;;;;;;23.90;11.73;;;6.80;99.90;;;;;;4991569;28;20034;-73
2024/02/12 00:23:45;;;;;;;16.08;9.75;;;6.80;99.90;;;;;;4974267;28;20095;-71
2024/02/12 00:26:11;;;;;;;18.88;10.63;;;6.80;99.90;;;;;;4991051;28;20022;-72
2024/02/12 00:28:37;;;;;;;16.30;10.82;;;6.80;99.90;;;;;;4990566;28;20370;-73
2024/02/12 00:31:03;;;;;;;20.63;11.17;;;6.80;99.90;;;;;;4990943;28;20085;-71
2024/02/12 00:33:29;;;;;;;20.40;11.10;;;6.80;99.90;;;;;;4991046;28;20057;-72
2024/02/12 00:35:55;;;;;;;19.75;10.40;;;6.80;99.90;;;;;;4991020;28;20254;-73
2024/02/12 00:38:21;;;;;;;18.90;9.90;;;6.80;99.90;;;;;;4990942;28;20046;-71
2024/02/12 00:40:47;;;;;;;;;;;6.90;99.90;;;;;;4991500;28;20121;-71
2024/02/12 00:43:12;;;;;;;16.98;10.05;;;6.90;99.90;;;;;;4990463;28;20040;-69
2024/02/12 00:45:41;;;;;;;15.27;10.23;;;6.80;99.90;;;;;;4990652;28;20768;-68
2024/02/12 00:48:07;;;;;;;19.83;11.18;;;6.90;99.90;;;;;;4990279;28;20050;-69
2024/02/12 00:50:35;;;;;;;16.80;10.63;;;6.90;99.90;;;;;;4990431;28;20054;-69
2024/02/12 00:53:01;;;;;;;15.68;9.88;;;6.90;99.90;;;;;;4990836;28;20046;-68
2024/02/12 00:55:27;;;;;;;20.15;10.82;;;6.90;99.90;;;;;;4990876;28;20096;-69
2024/02/12 00:57:52;;;;;;;17.40;10.87;;;6.80;99.90;;;;;;4990615;28;20050;-72
2024/02/12 01:00:20;;;;;;;17.08;9.80;;;6.70;99.90;;;;;;4990620;28;20033;-72
2024/02/12 01:02:46;;;;;;;19.02;10.77;;;6.70;99.90;;;;;;4990565;28;20141;-73
2024/02/12 01:05:13;;;;;;;22.05;10.88;;;6.80;99.90;;;;;;4990469;28;20105;-73
2024/02/12 01:07:40;;;;;;;21.65;10.15;;;6.80;99.90;;;;;;4999789;28;20092;-69
2024/02/12 01:10:07;;;;;;;18.30;10.60;;;6.80;99.90;;;;;;4991888;28;20030;-71
2024/02/12 01:12:32;;;;;;;;;;;6.80;99.90;;;;;;5010278;28;20030;-73
2024/02/12 01:14:59;;;;;;;19.42;10.07;;;6.80;99.90;;;;;;5009297;28;19909;-70
2024/02/12 01:17:27;;;;;;;16.40;10.02;;;6.80;99.90;;;;;;4991045;28;20025;-69
2024/02/12 01:19:53;;;;;;;15.40;10.25;;;6.80;99.90;;;;;;5009548;28;20060;-69
2024/02/12 01:22:19;;;;;;;19.17;10.80;;;6.80;99.90;;;;;;5009759;28;20069;-72
2024/02/12 01:24:46;;;;;;;23.30;11.43;;;6.80;99.90;;;;;;5008341;28;20068;-69
2024/02/12 01:27:12;;;;;;;;;;;6.80;99.90;;;;;;5009384;28;20524;-71
2024/02/12 01:29:40;;;;;;;18.10;10.07;;;6.80;99.90;;;;;;5001445;28;19960;-69
2024/02/12 01:32:07;;;;;;;16.58;10.02;;;6.80;99.90;;;;;;5010709;28;20022;-68
2024/02/12 01:34:34;;;;;;;18.33;10.23;;;6.80;99.90;;;;;;5010335;28;20057;-72
2024/02/12 01:37:00;;;;;;;14.90;9.75;;;6.80;99.90;;;;;;5009795;28;20432;-73
2024/02/12 01:39:26;;;;;;;16.48;10.48;;;6.80;99.90;;;;;;5010004;28;20382;-73
2024/02/12 01:41:52;;;;;;;15.77;10.37;;;6.90;99.90;;;;;;5005379;28;20045;-72
2024/02/12 01:44:18;;;;;;;21.52;9.90;;;6.90;99.90;;;;;;5009902;28;20653;-72
2024/02/12 01:46:49;;;;;;;18.38;10.70;;;6.90;99.90;;;;;;5010101;28;20034;-70
2024/02/12 01:49:19;;;;;;;16.23;10.18;;;6.90;99.90;;;;;;5009226;28;20572;-70
2024/02/12 01:51:48;;;;;;;21.45;10.40;;;6.90;99.90;;;;;;5008843;28;20113;-71
2024/02/12 01:54:15;;;;;;;20.80;11.52;;;6.90;99.90;;;;;;5008684;28;20108;-70
2024/02/12 01:56:42;;;;;;;21.23;10.88;;;6.90;99.90;;;;;;5008490;28;20072;-72
2024/02/12 01:59:17;;;;;;;19.63;11.00;;;6.80;99.90;;;;;;5008660;28;20125;-70
2024/02/12 02:01:47;;;;;;;16.23;10.45;;;6.80;99.90;;;;;;5001314;28;20040;-72
2024/02/12 02:04:13;;;;;;;17.73;11.00;;;6.80;99.90;;;;;;4989082;28;20069;-71
2024/02/12 02:06:39;;;;;;;19.00;10.73;;;6.80;99.90;;;;;;4991384;28;20065;-73
2024/02/12 02:09:07;;;;;;;19.20;11.73;;;6.70;99.90;;;;;;4989192;28;20339;-71
2024/02/12 02:11:33;;;;;;;13.90;9.50;;;6.70;99.90;;;;;;4988914;28;20378;-72
2024/02/12 02:13:59;;;;;;;17.77;10.87;;;6.70;99.90;;;;;;4989079;28;20034;-69
2024/02/12 02:16:25;;;;;;;17.27;10.48;;;6.80;99.90;;;;;;4989136;28;20034;-70
2024/02/12 02:18:52;;;;;;;17.65;10.73;;;6.80;99.90;;;;;;4989357;28;20034;-70
2024/02/12 02:21:18;;;;;;;20.95;10.30;;;6.80;99.90;;;;;;4988133;28;20454;-72
2024/02/12 02:23:44;;;;;;;17.33;9.85;;;6.80;99.90;;;;;;4988813;28;20054;-70
2024/02/12 02:26:09;;;;;;;15.13;9.73;;;6.90;99.90;;;;;;4989250;28;20098;-70
2024/02/12 02:28:35;;;;;;;20.27;10.50;;;6.80;99.90;;;;;;4988816;28;20037;-71
2024/02/12 02:31:00;;;;;;;14.40;9.60;;;6.80;99.90;;;;;;5007154;28;20513;-70
2024/02/12 02:33:26;;;;;;;15.63;10.13;;;6.70;99.90;;;;;;5007890;28;20040;-71
2024/02/12 02:35:52;;;;;;;18.97;10.33;;;6.70;99.90;;;;;;5007011;28;20529;-71
2024/02/12 02:38:18;;;;;;;18.73;10.10;;;6.70;99.90;;;;;;5008546;28;20072;-71
2024/02/12 02:40:44;;;;;;;18.60;10.85;;;6.70;99.90;;;;;;5008305;28;20130;-71
2024/02/12 02:43:10;;;;;;;20.00;10.18;;;6.70;99.90;;;;;;5008194;28;20100;-71
2024/02/12 02:45:35;;;;;;;15.20;9.00;;;6.60;99.90;;;;;;5008173;28;20030;-71
2024/02/12 02:48:02;;;;;;;17.33;10.02;;;6.70;99.90;;;;;;5008941;28;20034;-69
2024/02/12 02:50:29;;;;;;;17.60;9.65;;;6.60;99.90;;;;;;5008413;28;20068;-70
2024/02/12 02:52:59;;;;;;;17.35;10.35;;;6.60;99.90;;;;;;4990331;28;20084;-70
2024/02/12 02:55:27;;;;;;;17.02;10.68;;;6.40;99.90;;;;;;5008180;28;20033;-70
2024/02/12 02:57:56;;;;;;;12.10;8.32;;;6.50;99.90;;;;;;5008083;28;20038;-72
2024/02/12 03:00:25;;;;;;;18.75;9.77;;;6.60;99.90;;;;;;5008026;28;20034;-71
2024/02/12 03:02:52;;;;;;;19.40;10.45;;;6.50;99.90;;;;;;5007842;28;20464;-69
2024/02/12 03:05:18;;;;;;;13.50;8.85;;;6.50;99.90;;;;;;5008584;28;20110;-71
2024/02/12 03:07:47;;;;;;;16.60;8.70;;;6.50;99.90;;;;;;5007713;28;20112;-71
2024/02/12 03:10:16;;;;;;;16.30;8.15;;;6.50;99.90;;;;;;5007549;28;20026;-69
2024/02/12 03:12:43;;;;;;;12.90;8.88;;;6.50;99.90;;;;;;4991269;28;20454;-68
2024/02/12 03:15:11;;;;;;;21.27;8.45;;;6.50;99.90;;;;;;5008976;28;20053;-71
2024/02/12 03:17:40;;;;;;;16.65;8.48;;;6.50;99.90;;;;;;5008160;28;20077;-71
2024/02/12 03:20:09;;;;;;;14.05;8.20;;;6.40;99.90;;;;;;4990278;28;20033;-71
2024/02/12 03:22:35;;;;;;;15.43;8.23;;;6.50;99.90;;;;;;5007938;28;20393;-69
2024/02/12 03:25:02;;;;;;;15.75;9.73;;;6.50;99.90;;;;;;5008116;28;20021;-69
2024/02/12 03:27:28;;;;;;;17.73;9.93;;;6.50;99.90;;;;;;5008051;28;20034;-73
2024/02/12 03:29:53;;;;;;;21.60;11.30;;;6.40;99.90;;;;;;5007805;28;20041;-70
2024/02/12 03:32:19;;;;;;;17.73;11.40;;;6.50;99.90;;;;;;4990757;28;20058;-70
2024/02/12 03:34:45;;;;;;;25.05;13.07;;;6.50;99.90;;;;;;5007880;28;20128;-70
2024/02/12 03:37:13;;;;;;;20.17;10.83;;;6.50;99.90;;;;;;5007727;28;20498;-72
2024/02/12 03:39:39;;;;;;;22.02;11.55;;;6.50;99.90;;;;;;5007630;28;20026;-72
2024/02/12 03:42:08;;;;;;;21.50;11.33;;;6.50;99.90;;;;;;5007812;28;20033;-73
2024/02/12 03:44:34;;;;;;;21.85;10.43;;;6.50;99.90;;;;;;5008295;28;20029;-73
2024/02/12 03:47:00;;;;;;;22.63;10.80;;;6.50;99.90;;;;;;5011369;28;20555;-72
2024/02/12 04:00:25;;;;;;;19.48;10.68;;;6.40;99.90;;;;;;5011373;28;20797;-73
2024/02/12 04:02:51;;;;;;;18.07;9.20;;;6.40;99.90;;;;;;4994807;28;20120;-72
2024/02/12 04:05:20;;;;;;;15.30;8.98;;;6.40;99.90;;;;;;4991394;28;20406;-73
2024/02/12 04:07:46;;;;;;;22.35;9.73;;;6.40;99.90;;;;;;4991498;28;20026;-72
2024/02/12 04:10:11;;;;;;;16.27;9.67;;;6.40;99.90;;;;;;4991466;28;20141;-72
2024/02/12 04:12:43;;;;;;;17.47;9.57;;;6.40;99.90;;;;;;4993749;28;20316;-72
2024/02/12 04:15:11;;;;;;;27.23;10.30;;;6.40;99.90;;;;;;4990523;28;20035;-69
2024/02/12 04:17:37;;;;;;;18.80;10.50;;;6.30;99.90;;;;;;4990766;28;20096;-72
2024/02/12 04:20:05;;;;;;;17.73;9.93;;;6.30;99.90;;;;;;4990914;28;20053;-73
2024/02/12 04:22:33;;;;;;;16.23;9.13;;;6.30;99.90;;;;;;4991210;28;20105;-72
2024/02/12 04:25:00;;;;;;;19.08;9.73;;;6.20;99.90;;;;;;4991125;28;20026;-71
2024/02/12 04:27:26;;;;;;;17.45;9.40;;;6.20;99.90;;;;;;4991101;28;20030;-70
2024/02/12 04:29:53;;;;;;;21.85;9.07;;;6.20;99.90;;;;;;4991491;28;20033;-69
2024/02/12 04:32:18;;;;;;;19.20;8.93;;;6.20;99.90;;;;;;4990806;28;20085;-70
2024/02/12 04:34:44;;;;;;;14.83;9.23;;;6.20;99.90;;;;;;4990733;28;20022;-69
2024/02/12 04:37:11;;;;;;;15.33;8.83;;;6.20;99.90;;;;;;4990768;28;20466;-72
2024/02/12 04:39:37;;;;;;;22.20;9.38;;;6.20;99.90;;;;;;4991080;28;20030;-70
2024/02/12 04:42:04;;;;;;;25.60;9.88;;;6.20;99.90;;;;;;4990467;28;20065;-69
2024/02/12 04:44:29;;;;;;;16.17;9.45;;;6.20;99.90;;;;;;4990707;28;20030;-70
2024/02/12 04:46:57;;;;;;;17.67;9.52;;;6.10;99.90;;;;;;4990688;28;20045;-72
2024/02/12 04:49:23;;;;;;;15.10;9.20;;;6.00;99.90;;;;;;4991122;28;20030;-71
2024/02/12 04:51:49;;;;;;;18.02;11.15;;;6.00;99.90;;;;;;4990940;28;20036;-70
2024/02/12 04:54:14;;;;;;;16.77;9.50;;;6.00;99.90;;;;;;4992422;28;20384;-70
2024/02/12 04:56:43;;;;;;;20.97;9.03;;;6.00;99.90;;;;;;4993570;28;20105;-71
2024/02/12 04:59:14;;;;;;;14.93;9.57;;;5.90;99.90;;;;;;4990753;28;20750;-69
2024/02/12 05:01:40;;;;;;;15.50;9.38;;;5.90;99.90;;;;;;4989995;28;20482;-69
2024/02/12 05:04:06;;;;;;;15.63;8.87;;;5.90;99.90;;;;;;4990397;28;20030;-69
2024/02/12 05:06:36;;;;;;;15.63;7.93;;;5.90;99.90;;;;;;4990422;28;20332;-71
2024/02/12 05:09:04;;;;;;;15.38;7.88;;;5.80;99.90;;;;;;4973007;28;20572;-69
2024/02/12 05:11:30;;;;;;;15.13;7.93;;;5.70;99.90;;;;;;4990311;28;20038;-72
2024/02/12 05:13:56;;;;;;;16.90;8.20;;;5.60;99.90;;;;;;4990163;28;20041;-70
2024/02/12 05:16:29;;;;;;;11.43;7.20;;;5.60;99.90;;;;;;4990051;28;20516;-69
2024/02/12 05:24:34;;;;;;;11.30;7.70;;;5.30;99.90;;;;;;4990182;28;20042;-69
2024/02/12 05:27:00;;;;;;;14.32;8.30;;;5.20;99.90;;;;;;4990062;28;20394;-71
2024/02/12 05:29:26;;;;;;;;;;;5.20;99.90;;;;;;4990666;28;20042;-72
2024/02/12 05:31:53;;;;;;;15.82;7.90;;;5.20;99.90;;;;;;4990193;28;19913;-70
2024/02/12 05:34:21;;;;;;;15.90;8.55;;;5.20;99.90;;;;;;4996189;28;20040;-73
2024/02/12 05:36:54;;;;;;;15.13;6.63;;;5.10;99.90;;;;;;4998242;28;20049;-73
2024/02/12 05:39:21;;;;;;;13.73;5.97;;;5.10;99.90;;;;;;4993761;28;20626;-73
2024/02/12 05:41:47;;;;;;;8.43;4.60;;;5.00;99.90;;;;;;4996602;28;20504;-71
2024/02/12 05:44:14;;;;;;;8.88;5.25;;;5.00;99.90;;;;;;4997922;28;20049;-70
2024/02/12 05:46:39;;;;;;;10.40;5.05;;;4.90;99.90;;;;;;4997422;28;20034;-72
2024/02/12 05:49:06;;;;;;;7.30;4.30;;;4.80;99.90;;;;;;4997766;28;20041;-72
2024/02/12 05:51:33;;;;;;;11.82;6.15;;;4.80;99.90;;;;;;4995817;28;20033;-73
2024/02/12 05:54:00;;;;;;;17.80;7.43;;;4.80;99.90;;;;;;4996493;28;20092;-70
2024/02/12 05:56:26;;;;;;;15.32;8.23;;;4.90;99.90;;;;;;4997933;28;20048;-73
2024/02/12 05:58:51;;;;;;;18.38;8.52;;;5.00;99.90;;;;;;4997349;28;20221;-73
2024/02/12 06:01:17;;;;;;;18.23;10.07;;;5.00;99.90;;;;;;4997947;28;20026;-74
2024/02/12 06:03:42;;;;;;;22.20;8.27;;;4.90;99.90;;;;;;5001668;28;20040;-70
2024/02/12 06:06:08;;;;;;;14.43;8.40;;;4.90;99.90;;;;;;4997509;28;20061;-72
2024/02/12 06:08:33;;;;;;;15.97;8.00;;;4.90;99.90;;;;;;4992028;28;20041;-74
2024/02/12 06:10:59;;;;;;;21.33;8.83;;;4.90;99.90;;;;;;4996800;28;20034;-68
2024/02/12 06:13:25;;;;;;;17.97;8.57;;;4.80;99.90;;;;;;4997226;28;20109;-67
2024/02/12 06:15:50;;;;;;;16.17;9.27;;;4.80;99.90;;;;;;4979062;28;20030;-70
2024/02/12 06:18:16;;;;;;;15.02;8.18;;;4.80;99.90;;;;;;4995956;28;20041;-72
2024/02/12 06:20:42;;;;;;;21.20;8.90;;;4.90;99.90;;;;;;5000401;28;20132;-74
2024/02/12 06:23:07;;;;;;;14.55;8.15;;;4.80;99.90;;;;;;5000288;28;20165;-72
2024/02/12 06:25:33;;;;;;;16.23;8.52;;;4.80;99.90;;;;;;4998834;28;20038;-73
2024/02/12 06:27:59;;;;;;;13.93;7.97;;;4.70;99.90;;;;;;4997301;28;20030;-68
2024/02/12 06:30:25;;;;;;;19.88;8.77;;;4.70;99.90;;;;;;4998763;28;20049;-73
2024/02/12 06:32:51;;;;;;;20.98;9.60;;;4.70;99.90;;;;;;4988722;28;20042;-68
2024/02/12 06:35:17;;;;;;;17.30;8.43;;;4.70;99.90;;;;;;4994134;28;20030;-70
2024/02/12 06:37:46;;;;;;;16.10;8.25;;;4.80;99.90;;;;;;4998596;28;20030;-68
2024/02/12 06:40:13;;;;;;;17.80;8.30;;;4.80;99.90;;;;;;4997772;28;20089;-70
2024/02/12 06:42:39;;;;;;;16.67;8.07;;;4.80;99.90;;;;;;4998051;28;20038;-68
2024/02/12 06:45:05;;;;;;;23.75;8.43;;;4.70;99.90;;;;;;4996442;28;20026;-70
2024/02/12 06:47:31;;;;;;;15.27;8.30;;;4.70;99.90;;;;;;4996210;28;20416;-68
2024/02/12 06:49:56;;;;;;;17.30;7.50;;;4.60;99.90;;;;;;4997105;28;20034;-67
2024/02/12 06:52:22;;;;;;;18.03;8.33;;;4.60;99.90;;;;;;4996703;28;20235;-68
2024/02/12 06:54:48;;;;;;;15.63;7.63;;;4.60;99.90;;;;;;4997242;28;20041;-69
2024/02/12 06:57:15;;;;;;;14.02;7.30;;;4.60;99.90;;;;;;4998534;28;20029;-70
2024/02/12 06:59:41;;;;;;;;;;;4.60;99.90;;;;;;4998142;28;20041;-73
2024/02/12 07:02:07;;;;;;;13.20;6.25;;;4.60;99.90;;;;;;5002816;28;19913;-71
2024/02/12 07:04:32;;;;;;;17.33;8.27;;;4.60;99.90;;;;;;5001410;28;20039;-71
2024/02/12 07:06:58;;;;;;;19.37;8.47;;;4.60;99.90;;;;;;4999344;28;20656;-72
2024/02/12 07:09:24;;;;;;;21.23;10.73;;;4.60;99.90;;;;;;4998984;28;20323;-70
2024/02/12 07:11:51;;;;;;;25.02;11.65;;;4.60;99.90;;;;;;4999697;28;20372;-69
2024/02/12 07:14:16;;;;;;;23.58;12.73;;;4.60;99.90;;;;;;4999318;28;20030;-73
2024/02/12 07:16:44;;;;;;;38.13;20.42;;;4.60;99.90;;;;;;5001887;28;20060;-74
2024/02/12 07:19:10;;;;;;;34.25;17.33;;;4.50;99.90;;;;;;5001830;28;20037;-74
2024/02/12 07:21:35;;;;;;;25.25;14.35;;;4.60;99.90;;;;;;5000431;28;20101;-74
2024/02/12 07:24:01;;;;;;;24.93;14.50;;;4.60;99.90;;;;;;4997393;28;20545;-72
2024/02/12 07:26:27;;;;;;;22.00;12.90;;;4.60;99.90;;;;;;4996768;28;20905;-72
2024/02/12 07:28:52;;;;;;;17.80;12.23;;;4.70;99.90;;;;;;4996562;28;20065;-70
2024/02/12 07:31:18;;;;;;;18.97;11.90;;;4.80;99.90;;;;;;4996519;28;20843;-74
2024/02/12 07:33:43;;;;;;;20.73;11.37;;;5.00;99.90;;;;;;4999515;28;20034;-75
2024/02/12 07:36:09;;;;;;;20.33;11.60;;;5.10;99.90;;;;;;4998431;28;20058;-76
2024/02/12 07:38:36;;;;;;;27.17;12.27;;;5.30;99.90;;;;;;4999715;28;20044;-70
2024/02/12 07:41:02;;;;;;;20.77;12.20;;;5.40;99.90;;;;;;4998856;28;20660;-76
2024/02/12 07:43:28;;;;;;;16.88;10.52;;;5.50;99.90;;;;;;4997396;28;20042;-71
2024/02/12 07:45:56;;;;;;;21.25;11.43;;;5.60;99.90;;;;;;4997312;28;20030;-75
2024/02/12 07:48:22;;;;;;;17.17;10.77;;;5.80;99.90;;;;;;4997711;28;20030;-76
2024/02/12 07:50:52;;;;;;;14.85;10.43;;;5.90;99.90;;;;;;4995189;28;20041;-76
2024/02/12 07:53:25;;;;;;;18.80;10.60;;;5.90;99.90;;;;;;5001050;28;20046;-76
2024/02/12 07:55:54;;;;;;;17.67;11.00;;;5.80;99.90;;;;;;4996012;28;20033;-76
2024/02/12 07:58:24;;;;;;;17.60;10.55;;;5.80;99.90;;;;;;4996100;28;20049;-76
2024/02/12 08:00:50;;;;;;;19.95;11.18;;;5.80;99.90;;;;;;4996123;28;20035;-76
2024/02/12 08:03:19;;;;;;;19.40;11.53;;;5.90;99.90;;;;;;5006619;28;20094;-76
2024/02/12 08:05:46;;;;;;;18.58;11.43;;;6.00;99.90;;;;;;4999669;28;20299;-77
2024/02/12 08:08:11;;;;;;;;;;;6.10;99.90;;;;;;4997531;28;20750;-76
2024/02/12 08:10:37;;;;;;;19.33;9.57;;;6.20;99.90;;;;;;4995713;28;19916;-76
2024/02/12 08:13:04;;;;;;;19.70;8.93;;;6.40;99.90;;;;;;4997019;28;20109;-69
2024/02/12 08:15:30;;;;;;;;;;;6.50;99.90;;;;;;4996648;28;20034;-71
2024/02/12 08:17:56;;;;;;;18.73;7.15;;;6.50;99.90;;;;;;4996537;28;19996;-68
2024/02/12 08:20:21;;;;;;;19.48;7.70;;;6.10;99.90;;;;;;4993524;28;20122;-69
2024/02/12 08:22:49;;;;;;;14.13;6.63;;;6.10;99.90;;;;;;4998850;28;20030;-69
2024/02/12 08:25:15;;;;;;;18.80;6.90;;;6.20;99.90;;;;;;4995027;28;20902;-69
2024/02/12 08:27:40;;;;;;;13.37;6.77;;;6.30;99.90;;;;;;4998802;28;20082;-73
2024/02/12 08:30:06;;;;;;;17.80;7.30;;;6.40;99.90;;;;;;5001877;28;20120;-72
2024/02/12 08:32:33;;;;;;;20.95;7.00;;;6.60;99.90;;;;;;5007620;28;20061;-78
2024/02/12 08:34:58;;;;;;;14.70;6.43;;;6.90;99.90;;;;;;4999653;28;20050;-71
2024/02/12 08:37:24;;;;;;;15.33;6.80;;;7.30;99.90;;;;;;4991678;28;20026;-72
2024/02/12 08:39:50;;;;;;;19.90;7.87;;;7.60;99.90;;;;;;4998654;28;20277;-74
2024/02/12 08:42:15;;;;;;;23.85;9.07;;;7.70;99.90;;;;;;5001912;28;20034;-72
2024/02/12 08:44:44;;;;;;;16.13;7.87;;;7.90;99.90;;;;;;5000849;28;20810;-72
2024/02/12 08:47:09;;;;;;;12.98;7.97;;;9.80;99.90;;;;;;4998728;28;20061;-72
2024/02/12 08:49:35;;;;;;;14.87;8.33;;;13.10;99.90;;;;;;4998572;28;20065;-71
2024/02/12 08:52:01;;;;;;;16.05;8.02;;;15.30;91.70;;;;;;4998280;28;20084;-71
2024/02/12 08:54:30;;;;;;;12.80;7.68;;;16.50;85.00;;;;;;4999616;28;20057;-72
2024/02/12 08:56:56;;;;;;;13.93;7.82;;;17.10;80.60;;;;;;5000114;28;20553;-72
2024/02/12 08:59:23;;;;;;;14.73;8.70;;;16.00;80.40;;;;;;5001818;28;20057;-70
2024/02/12 09:01:49;;;;;;;22.35;10.40;;;16.30;80.30;;;;;;5007961;28;20030;-73
2024/02/12 09:04:15;;;;;;;18.35;8.32;;;15.50;79.50;;;;;;5002078;28;20501;-73
2024/02/12 09:06:41;;;;;;;;;;;14.60;80.80;;;;;;4999368;28;20093;-70
2024/02/12 09:09:06;;;;;;;32.47;13.82;;;12.90;90.30;;;;;;5003469;28;19917;-72
2024/02/12 09:11:32;;;;;;;30.70;14.90;;;11.80;91.20;;;;;;4997763;28;20044;-69
2024/02/12 09:13:58;;;;;;;30.77;15.13;;;11.20;96.50;;;;;;5004453;28;20376;-72
2024/02/12 09:16:25;;;;;;;38.97;15.47;;;11.30;97.60;;;;;;5004171;28;20026;-72
2024/02/12 09:18:50;;;;;;;34.47;15.32;;;11.60;96.90;;;;;;5000976;28;20505;-74
2024/02/12 09:21:17;;;;;;;32.10;13.83;;;11.40;96.10;;;;;;5005308;28;20108;-72
2024/02/12 09:23:43;;;;;;;40.90;19.45;;;11.40;96.60;;;;;;5001745;28;20088;-75
2024/02/12 09:26:08;;;;;;;37.92;17.92;;;11.30;95.60;;;;;;4996223;28;20061;-77
2024/02/12 09:28:35;;;;;;;42.37;20.87;;;11.70;94.50;;;;;;4995372;28;20034;-73
2024/02/12 09:31:01;;;;;;;26.90;12.32;;;11.00;94.60;;;;;;4993173;28;20028;-70
2024/02/12 09:33:30;;;;;;;34.08;16.52;;;10.70;96.60;;;;;;4994087;28;20046;-71
2024/02/12 09:35:57;;;;;;;44.10;20.10;;;10.40;96.50;;;;;;4997065;28;20068;-69
2024/02/12 09:38:22;;;;;;;48.17;21.05;;;10.20;99.60;;;;;;5002687;28;20042;-68
2024/02/12 09:40:49;;;;;;;38.70;18.53;;;10.40;99.90;;;;;;5001157;28;20060;-69
2024/02/12 09:43:20;;;;;;;44.25;16.70;;;10.40;99.60;;;;;;5004542;28;20077;-69
2024/02/12 09:45:48;;;;;;;34.15;16.20;;;10.70;96.30;;;;;;4999058;28;20032;-71
2024/02/12 09:48:14;;;;;;;36.88;15.98;;;10.70;96.80;;;;;;4983524;28;20126;-70
2024/02/12 09:50:46;;;;;;;32.43;13.10;;;10.80;96.60;;;;;;4999104;28;20100;-68
2024/02/12 09:53:17;;;;;;;30.83;15.10;;;11.20;96.60;;;;;;4983184;28;20034;-67
2024/02/12 09:55:48;;;;;;;29.40;12.32;;;12.00;95.10;;;;;;4989288;28;20027;-67
2024/02/12 09:58:18;;;;;;;35.30;14.18;;;11.80;93.90;;;;;;4980242;28;20042;-66
2024/02/12 10:00:44;;;;;;;24.50;9.93;;;11.50;94.50;;;;;;5002286;28;20026;-67
2024/02/12 10:03:13;;;;;;;21.17;7.95;;;11.50;94.80;;;;;;4998889;28;20022;-66
2024/02/12 10:05:43;;;;;;;12.43;5.72;;;11.30;94.70;;;;;;5001787;28;20050;-66
2024/02/12 10:08:22;;;;;;;19.23;6.63;;;11.50;94.30;;;;;;5001655;28;20053;-68
2024/02/12 10:10:49;;;;;;;8.82;4.75;;;12.00;93.30;;;;;;4999478;28;20084;-67
2024/02/12 10:13:19;;;;;;;11.52;5.07;;;11.90;93.20;;;;;;4999423;28;20033;-73
2024/02/12 10:15:46;;;;;;;13.02;4.97;;;12.00;93.60;;;;;;4996225;28;20034;-71
2024/02/12 10:18:15;;;;;;;13.88;4.22;;;11.80;93.10;;;;;;5000241;28;20099;-67
2024/02/12 10:20:42;;;;;;;13.50;4.43;;;11.60;92.10;;;;;;5004456;28;20141;-73
2024/02/12 10:23:09;;;;;;;9.27;3.67;;;11.50;93.10;;;;;;4996072;28;20037;-71
2024/02/12 10:25:38;;;;;;;;;;;11.30;92.60;;;;;;5000655;28;20026;-71
2024/02/12 10:28:04;;;;;;;13.68;4.82;;;11.40;93.40;;;;;;5002906;28;19920;-67
2024/02/12 10:30:29;;;;;;;8.83;4.17;;;11.90;93.50;;;;;;5003046;28;20021;-70
2024/02/12 10:33:00;;;;;;;11.97;4.60;;;12.20;92.60;;;;;;5002875;28;20276;-68
2024/02/12 10:35:26;;;;;;;9.88;4.88;;;12.50;92.30;;;;;;5000485;28;20609;-67
2024/02/12 10:37:53;;;;;;;;;;;12.70;90.50;;;;;;4996991;28;20056;-69
2024/02/12 10:40:26;;;;;;;12.60;4.60;;;12.00;93.00;;;;;;4995505;28;19972;-70
2024/02/12 10:42:53;;;;;;;11.15;4.00;;;11.30;92.10;;;;;;4995832;28;20203;-71
2024/02/12 10:45:20;;;;;;;10.48;4.82;;;11.00;94.50;;;;;;4996586;28;20070;-72
2024/02/12 10:47:47;;;;;;;22.90;5.30;;;10.80;95.00;;;;;;4998190;28;20516;-72
2024/02/12 10:50:14;;;;;;;11.10;4.82;;;10.70;94.50;;;;;;4997645;28;20561;-74
2024/02/12 10:52:44;;;;;;;9.25;3.70;;;10.50;94.60;;;;;;4995405;28;20023;-73
2024/02/12 10:55:10;;;;;;;9.07;4.68;;;10.50;95.70;;;;;;5000047;28;20038;-69
2024/02/12 10:57:42;;;;;;;17.00;5.90;;;10.70;94.20;;;;;;4998408;28;20030;-72
2024/02/12 11:00:23;;;;;;;14.32;5.65;;;10.60;94.10;;;;;;4998463;28;20064;-72
2024/02/12 11:02:50;;;;;;;22.15;7.82;;;10.80;94.70;;;;;;5001260;28;20038;-73
2024/02/12 11:05:17;;;;;;;12.63;5.30;;;11.40;95.20;;;;;;4999123;28;20038;-73
2024/02/12 11:07:43;;;;;;;14.38;4.57;;;11.60;94.40;;;;;;4996422;28;20505;-72
2024/02/12 11:10:09;;;;;;;15.82;5.53;;;11.50;95.20;;;;;;4996741;28;20316;-70
2024/02/12 11:12:41;;;;;;;16.77;4.37;;;11.50;95.70;;;;;;4998190;28;20422;-69
2024/02/12 11:15:12;;;;;;;18.98;5.55;;;11.50;95.40;;;;;;4999013;28;20297;-71
2024/02/12 11:17:38;;;;;;;11.52;5.15;;;11.50;94.50;;;;;;4998712;28;20112;-73
2024/02/12 11:20:15;;;;;;;15.98;5.75;;;11.70;94.10;;;;;;4992381;28;20503;-72
2024/02/12 11:22:44;;;;;;;;;;;11.90;93.70;;;;;;5001798;28;20034;-71
2024/02/12 11:25:15;;;;;;;12.35;3.70;;;12.00;93.40;;;;;;4995220;28;20625;-69
2024/02/12 11:27:42;;;;;;;13.68;3.97;;;12.20;93.10;;;;;;4997312;28;20394;-67
2024/02/12 11:30:09;;;;;;;10.13;2.90;;;12.30;92.10;;;;;;4998044;28;20030;-75
2024/02/12 11:32:36;;;;;;;11.90;3.55;;;12.10;91.20;;;;;;4994822;28;20030;-74
2024/02/12 11:35:15;;;;;;;7.50;2.95;;;12.00;90.20;;;;;;4992610;28;20086;-70
2024/02/12 11:37:45;;;;;;;13.15;3.33;;;12.10;90.80;;;;;;4998906;28;20511;-74
2024/02/12 11:40:16;;;;;;;9.07;3.33;;;12.20;90.50;;;;;;4996969;28;20123;-71
2024/02/12 11:42:51;;;;;;;10.93;3.92;;;12.40;93.30;;;;;;5002983;28;20030;-71
2024/02/12 11:45:22;;;;;;;14.75;3.40;;;12.40;93.20;;;;;;5000395;28;20026;-73
2024/02/12 11:47:49;;;;;;;11.98;2.60;;;12.30;92.80;;;;;;5003397;28;20683;-74
2024/02/12 11:50:34;;;;;;;13.43;2.50;;;12.20;92.40;;;;;;4994709;28;20157;-73
2024/02/12 11:53:01;;;;;;;6.57;2.35;;;11.90;92.40;;;;;;4999891;28;20457;-71
2024/02/12 11:55:27;;;;;;;14.30;3.28;;;11.80;92.70;;;;;;4996571;28;20022;-75
2024/02/12 11:57:53;;;;;;;9.52;3.10;;;11.80;93.60;;;;;;4997623;28;20386;-76
2024/02/12 12:00:22;;;;;;;12.35;3.13;;;11.90;93.30;;;;;;5001612;28;20064;-70
2024/02/12 12:02:52;;;;;;;10.20;2.75;;;12.00;93.10;;;;;;4997511;28;20021;-72
2024/02/12 12:05:27;;;;;;;15.98;3.05;;;12.00;92.10;;;;;;5000751;28;20033;-75
2024/02/12 12:07:54;;;;;;;13.93;3.17;;;12.00;91.70;;;;;;5003560;28;20065;-68
2024/02/12 12:10:23;;;;;;;;;;;12.10;93.20;;;;;;5006696;28;20061;-74
2024/02/12 12:12:50;;;;;;;11.30;3.00;;;12.10;92.60;;;;;;5003570;28;20659;-69
2024/02/12 12:15:17;;;;;;;7.38;3.72;;;12.20;93.20;;;;;;5004230;28;20136;-68
2024/02/12 12:17:44;;;;;;;10.98;3.35;;;12.10;94.10;;;;;;5005275;28;20343;-72
2024/02/12 12:20:12;;;;;;;10.95;3.63;;;12.10;94.20;;;;;;5001174;28;20540;-72
2024/02/12 12:22:38;;;;;;;9.35;3.28;;;12.00;94.10;;;;;;5002061;28;20506;-68
2024/02/12 12:25:05;;;;;;;;;;;11.90;93.20;;;;;;5004214;28;20010;-73
2024/02/12 12:27:31;;;;;;;12.73;3.63;;;11.70;93.20;;;;;;4996834;28;20048;-72
2024/02/12 12:29:57;;;;;;;11.20;3.63;;;11.70;93.80;;;;;;4997921;28;20135;-70
2024/02/12 12:32:25;;;;;;;8.07;2.85;;;11.80;94.90;;;;;;5004780;28;20626;-66
2024/02/12 12:34:51;;;;;;;13.63;3.30;;;11.60;93.20;;;;;;5004402;28;20133;-68
2024/02/12 12:37:17;;;;;;;10.45;2.70;;;11.60;94.80;;;;;;4995352;28;20026;-71
2024/02/12 12:39:43;;;;;;;10.18;2.50;;;11.70;94.80;;;;;;4999279;28;20037;-70
2024/02/12 12:42:12;;;;;;;14.02;2.92;;;11.80;94.20;;;;;;5005183;28;20124;-70
2024/02/12 12:44:38;;;;;;;11.82;3.38;;;11.80;95.10;;;;;;4988434;28;20561;-72
2024/02/12 12:47:05;;;;;;;14.60;3.83;;;11.80;94.80;;;;;;5001046;28;20076;-67
2024/02/12 12:49:32;;;;;;;10.27;3.88;;;11.90;95.40;;;;;;4999681;28;20453;-66
2024/02/12 12:51:58;;;;;;;13.15;3.55;;;11.90;95.80;;;;;;4999422;28;20057;-66
2024/02/12 12:54:24;;;;;;;;;;;12.00;95.30;;;;;;5006407;28;20413;-72
2024/02/12 12:56:51;;;;;;;8.98;2.83;;;12.00;93.50;;;;;;5003083;28;19909;-69
2024/02/12 12:59:17;;;;;;;10.57;2.55;;;12.10;94.20;;;;;;4999665;28;20042;-68
2024/02/12 13:01:42;;;;;;;7.32;2.53;;;11.80;91.30;;;;;;5003294;28;20083;-68